sensor_id;sensor_type;location;lat;lon;timestamp;P1;durP1;ratioP1;P2;durP2;ratioP2
6209;SDS011;3138;52.550;13.148;2024-03-22T00:00:38;31.80;;;20.50;;
6209;SDS011;3138;52.550;13.148;2024-03-22T00:03:05;28.40;;;20.53;;
6209;SDS011;3138;52.550;13.148;2024-03-22T00:05:32;29.70;;;18.90;;
6209;SDS011;3138;52.550;13.148;2024-03-22T00:07:58;29.33;;;20.00;;
6209;SDS011;3138;52.550;13.148;2024-03-22T00:10:25;31.60;;;19.17;;
6209;SDS011;3138;52.550;13.148;2024-03-22T00:12:50;35.77;;;21.37;;
6209;SDS011;3138;52.550;13.148;2024-03-22T00:15:17;30.80;;;20.33;;
6209;SDS011;3138;52.550;13.148;2024-03-22T00:17:44;33.83;;;18.90;;
6209;SDS011;3138;52.550;13.148;2024-03-22T00:20:12;28.43;;;18.80;;
6209;SDS011;3138;52.550;13.148;2024-03-22T00:22:38;30.80;;;20.50;;
6209;SDS011;3138;52.550;13.148;2024-03-22T00:25:05;32.90;;;18.77;;
6209;SDS011;3138;52.550;13.148;2024-03-22T00:27:32;30.30;;;18.80;;
6209;SDS011;3138;52.550;13.148;2024-03-22T00:29:58;31.47;;;19.40;;
6209;SDS011;3138;52.550;13.148;2024-03-22T00:32:24;29.23;;;20.47;;
6209;SDS011;3138;52.550;13.148;2024-03-22T00:34:51;35.00;;;21.50;;
6209;SDS011;3138;52.550;13.148;2024-03-22T00:37:18;30.80;;;19.50;;
6209;SDS011;3138;52.550;13.148;2024-03-22T00:39:45;30.13;;;20.57;;
6209;SDS011;3138;52.550;13.148;2024-03-22T00:42:11;34.23;;;20.70;;
6209;SDS011;3138;52.550;13.148;2024-03-22T00:44:38;28.77;;;20.10;;
6209;SDS011;3138;52.550;13.148;2024-03-22T00:47:04;32.90;;;20.00;;
6209;SDS011;3138;52.550;13.148;2024-03-22T00:49:31;33.63;;;19.90;;
6209;SDS011;3138;52.550;13.148;2024-03-22T00:51:57;39.13;;;20.97;;
6209;SDS011;3138;52.550;13.148;2024-03-22T00:54:25;30.33;;;19.47;;
6209;SDS011;3138;52.550;13.148;2024-03-22T00:56:51;40.37;;;22.10;;
6209;SDS011;3138;52.550;13.148;2024-03-22T00:59:17;38.03;;;20.80;;
6209;SDS011;3138;52.550;13.148;2024-03-22T01:01:43;56.43;;;22.60;;
6209;SDS011;3138;52.550;13.148;2024-03-22T01:04:10;46.00;;;23.73;;
6209;SDS011;3138;52.550;13.148;2024-03-22T01:06:36;36.67;;;22.73;;
6209;SDS011;3138;52.550;13.148;2024-03-22T01:09:04;30.80;;;19.77;;
6209;SDS011;3138;52.550;13.148;2024-03-22T01:11:32;43.80;;;23.53;;
6209;SDS011;3138;52.550;13.148;2024-03-22T01:13:59;33.13;;;21.50;;
6209;SDS011;3138;52.550;13.148;2024-03-22T01:16:24;41.50;;;23.70;;
6209;SDS011;3138;52.550;13.148;2024-03-22T01:18:51;35.63;;;22.03;;
6209;SDS011;3138;52.550;13.148;2024-03-22T01:21:17;41.13;;;22.33;;
6209;SDS011;3138;52.550;13.148;2024-03-22T01:23:44;39.87;;;23.30;;
6209;SDS011;3138;52.550;13.148;2024-03-22T01:26:10;39.73;;;22.13;;
6209;SDS011;3138;52.550;13.148;2024-03-22T01:28:38;40.47;;;23.00;;
6209;SDS011;3138;52.550;13.148;2024-03-22T01:31:04;46.37;;;24.37;;
6209;SDS011;3138;52.550;13.148;2024-03-22T01:33:44;39.83;;;24.07;;
6209;SDS011;3138;52.550;13.148;2024-03-22T01:36:11;44.23;;;24.00;;
6209;SDS011;3138;52.550;13.148;2024-03-22T01:38:37;41.87;;;23.00;;
6209;SDS011;3138;52.550;13.148;2024-03-22T01:41:04;40.50;;;22.60;;
6209;SDS011;3138;52.550;13.148;2024-03-22T01:43:30;46.17;;;25.27;;
6209;SDS011;3138;52.550;13.148;2024-03-22T01:45:58;38.23;;;21.30;;
6209;SDS011;3138;52.550;13.148;2024-03-22T01:48:24;42.27;;;23.47;;
6209;SDS011;3138;52.550;13.148;2024-03-22T01:50:51;46.17;;;25.80;;
6209;SDS011;3138;52.550;13.148;2024-03-22T01:53:17;38.47;;;23.53;;
6209;SDS011;3138;52.550;13.148;2024-03-22T01:55:45;62.23;;;22.70;;
6209;SDS011;3138;52.550;13.148;2024-03-22T01:58:11;40.40;;;22.67;;
6209;SDS011;3138;52.550;13.148;2024-03-22T02:00:38;42.17;;;22.50;;
6209;SDS011;3138;52.550;13.148;2024-03-22T02:03:05;39.40;;;22.80;;
6209;SDS011;3138;52.550;13.148;2024-03-22T02:05:32;39.73;;;22.53;;
6209;SDS011;3138;52.550;13.148;2024-03-22T02:07:58;42.03;;;22.83;;
6209;SDS011;3138;52.550;13.148;2024-03-22T02:10:25;35.27;;;21.67;;
6209;SDS011;3138;52.550;13.148;2024-03-22T02:12:51;39.43;;;22.50;;
6209;SDS011;3138;52.550;13.148;2024-03-22T02:15:18;41.67;;;22.37;;
6209;SDS011;3138;52.550;13.148;2024-03-22T02:17:44;44.83;;;23.93;;
6209;SDS011;3138;52.550;13.148;2024-03-22T02:20:12;38.03;;;21.53;;
6209;SDS011;3138;52.550;13.148;2024-03-22T02:22:38;44.27;;;22.87;;
6209;SDS011;3138;52.550;13.148;2024-03-22T02:25:06;35.87;;;23.03;;
6209;SDS011;3138;52.550;13.148;2024-03-22T02:27:33;40.47;;;23.87;;
6209;SDS011;3138;52.550;13.148;2024-03-22T02:29:59;39.10;;;21.83;;
6209;SDS011;3138;52.550;13.148;2024-03-22T02:32:26;44.30;;;22.93;;
6209;SDS011;3138;52.550;13.148;2024-03-22T02:34:53;42.37;;;24.30;;
6209;SDS011;3138;52.550;13.148;2024-03-22T02:37:19;39.00;;;21.60;;
6209;SDS011;3138;52.550;13.148;2024-03-22T02:39:46;52.90;;;22.10;;
6209;SDS011;3138;52.550;13.148;2024-03-22T02:42:13;38.93;;;22.90;;
6209;SDS011;3138;52.550;13.148;2024-03-22T02:44:40;38.97;;;21.70;;
6209;SDS011;3138;52.550;13.148;2024-03-22T02:47:08;42.30;;;23.03;;
6209;SDS011;3138;52.550;13.148;2024-03-22T02:49:35;35.73;;;20.57;;
6209;SDS011;3138;52.550;13.148;2024-03-22T02:52:00;47.40;;;22.93;;
6209;SDS011;3138;52.550;13.148;2024-03-22T02:54:27;39.60;;;22.00;;
6209;SDS011;3138;52.550;13.148;2024-03-22T02:56:53;44.00;;;20.93;;
6209;SDS011;3138;52.550;13.148;2024-03-22T02:59:21;38.03;;;20.33;;
6209;SDS011;3138;52.550;13.148;2024-03-22T03:01:50;39.00;;;22.37;;
6209;SDS011;3138;52.550;13.148;2024-03-22T03:04:17;37.43;;;20.83;;
6209;SDS011;3138;52.550;13.148;2024-03-22T03:06:43;36.90;;;19.40;;
6209;SDS011;3138;52.550;13.148;2024-03-22T03:09:10;31.47;;;18.53;;
6209;SDS011;3138;52.550;13.148;2024-03-22T03:11:36;37.63;;;22.33;;
6209;SDS011;3138;52.550;13.148;2024-03-22T03:14:04;34.67;;;19.73;;
6209;SDS011;3138;52.550;13.148;2024-03-22T03:16:31;33.63;;;19.67;;
6209;SDS011;3138;52.550;13.148;2024-03-22T03:18:58;34.00;;;20.87;;
6209;SDS011;3138;52.550;13.148;2024-03-22T03:21:23;42.53;;;22.13;;
6209;SDS011;3138;52.550;13.148;2024-03-22T03:23:50;38.63;;;21.40;;
6209;SDS011;3138;52.550;13.148;2024-03-22T03:26:16;40.00;;;19.90;;
6209;SDS011;3138;52.550;13.148;2024-03-22T03:28:43;41.43;;;21.33;;
6209;SDS011;3138;52.550;13.148;2024-03-22T03:31:09;40.20;;;20.70;;
6209;SDS011;3138;52.550;13.148;2024-03-22T03:33:37;36.33;;;21.43;;
6209;SDS011;3138;52.550;13.148;2024-03-22T03:36:03;42.57;;;20.50;;
6209;SDS011;3138;52.550;13.148;2024-03-22T03:38:31;34.83;;;20.47;;
6209;SDS011;3138;52.550;13.148;2024-03-22T03:40:57;31.37;;;17.47;;
6209;SDS011;3138;52.550;13.148;2024-03-22T03:43:23;40.73;;;21.60;;
6209;SDS011;3138;52.550;13.148;2024-03-22T03:45:49;36.50;;;21.70;;
6209;SDS011;3138;52.550;13.148;2024-03-22T03:48:16;41.57;;;19.67;;
6209;SDS011;3138;52.550;13.148;2024-03-22T03:50:51;31.67;;;18.13;;
6209;SDS011;3138;52.550;13.148;2024-03-22T03:53:19;43.80;;;20.80;;
6209;SDS011;3138;52.550;13.148;2024-03-22T03:55:45;38.67;;;20.13;;
6209;SDS011;3138;52.550;13.148;2024-03-22T03:58:12;32.43;;;19.10;;
6209;SDS011;3138;52.550;13.148;2024-03-22T04:00:38;41.77;;;20.50;;
6209;SDS011;3138;52.550;13.148;2024-03-22T04:03:05;43.27;;;20.40;;
6209;SDS011;3138;52.550;13.148;2024-03-22T04:05:31;35.70;;;19.23;;
6209;SDS011;3138;52.550;13.148;2024-03-22T04:07:59;39.47;;;20.20;;
6209;SDS011;3138;52.550;13.148;2024-03-22T04:10:25;32.43;;;17.63;;
6209;SDS011;3138;52.550;13.148;2024-03-22T04:12:51;33.67;;;18.67;;
6209;SDS011;3138;52.550;13.148;2024-03-22T04:15:17;41.50;;;21.47;;
6209;SDS011;3138;52.550;13.148;2024-03-22T04:17:44;43.30;;;18.80;;
6209;SDS011;3138;52.550;13.148;2024-03-22T04:20:10;43.40;;;19.57;;
6209;SDS011;3138;52.550;13.148;2024-03-22T04:22:38;37.53;;;18.40;;
6209;SDS011;3138;52.550;13.148;2024-03-22T04:25:06;41.53;;;18.77;;
6209;SDS011;3138;52.550;13.148;2024-03-22T04:27:35;34.57;;;20.20;;
6209;SDS011;3138;52.550;13.148;2024-03-22T04:30:01;29.47;;;17.03;;
6209;SDS011;3138;52.550;13.148;2024-03-22T04:32:28;38.43;;;18.40;;
6209;SDS011;3138;52.550;13.148;2024-03-22T04:34:54;31.13;;;18.07;;
6209;SDS011;3138;52.550;13.148;2024-03-22T04:37:21;33.57;;;16.93;;
6209;SDS011;3138;52.550;13.148;2024-03-22T04:39:48;35.67;;;19.50;;
6209;SDS011;3138;52.550;13.148;2024-03-22T04:42:17;42.30;;;20.00;;
6209;SDS011;3138;52.550;13.148;2024-03-22T04:44:43;29.33;;;17.40;;
6209;SDS011;3138;52.550;13.148;2024-03-22T04:47:09;33.30;;;18.60;;
6209;SDS011;3138;52.550;13.148;2024-03-22T04:49:36;31.90;;;16.97;;
6209;SDS011;3138;52.550;13.148;2024-03-22T04:52:02;35.80;;;19.40;;
6209;SDS011;3138;52.550;13.148;2024-03-22T04:54:29;36.20;;;17.73;;
6209;SDS011;3138;52.550;13.148;2024-03-22T04:56:55;37.80;;;19.03;;
6209;SDS011;3138;52.550;13.148;2024-03-22T04:59:23;31.10;;;17.47;;
6209;SDS011;3138;52.550;13.148;2024-03-22T05:01:49;33.17;;;18.83;;
6209;SDS011;3138;52.550;13.148;2024-03-22T05:04:16;34.03;;;16.93;;
6209;SDS011;3138;52.550;13.148;2024-03-22T05:06:41;30.20;;;15.97;;
6209;SDS011;3138;52.550;13.148;2024-03-22T05:09:08;34.23;;;18.40;;
6209;SDS011;3138;52.550;13.148;2024-03-22T05:11:35;33.67;;;17.50;;
6209;SDS011;3138;52.550;13.148;2024-03-22T05:14:02;37.20;;;17.77;;
6209;SDS011;3138;52.550;13.148;2024-03-22T05:16:30;40.83;;;17.60;;
6209;SDS011;3138;52.550;13.148;2024-03-22T05:18:56;34.37;;;18.90;;
6209;SDS011;3138;52.550;13.148;2024-03-22T05:21:22;32.80;;;17.20;;
6209;SDS011;3138;52.550;13.148;2024-03-22T05:23:49;37.40;;;20.17;;
6209;SDS011;3138;52.550;13.148;2024-03-22T05:26:15;41.83;;;17.97;;
6209;SDS011;3138;52.550;13.148;2024-03-22T05:28:43;33.03;;;17.87;;
6209;SDS011;3138;52.550;13.148;2024-03-22T05:31:09;36.37;;;19.30;;
6209;SDS011;3138;52.550;13.148;2024-03-22T05:33:38;29.40;;;16.23;;
6209;SDS011;3138;52.550;13.148;2024-03-22T05:36:04;40.30;;;18.53;;
6209;SDS011;3138;52.550;13.148;2024-03-22T05:38:31;31.37;;;17.03;;
6209;SDS011;3138;52.550;13.148;2024-03-22T05:40:57;34.37;;;18.20;;
6209;SDS011;3138;52.550;13.148;2024-03-22T05:43:24;42.23;;;19.87;;
6209;SDS011;3138;52.550;13.148;2024-03-22T05:45:49;37.03;;;19.90;;
6209;SDS011;3138;52.550;13.148;2024-03-22T05:48:16;32.67;;;18.40;;
6209;SDS011;3138;52.550;13.148;2024-03-22T05:50:43;27.20;;;15.17;;
6209;SDS011;3138;52.550;13.148;2024-03-22T05:53:10;30.17;;;17.33;;
6209;SDS011;3138;52.550;13.148;2024-03-22T05:55:36;27.43;;;17.40;;
6209;SDS011;3138;52.550;13.148;2024-03-22T05:58:03;39.27;;;18.93;;
6209;SDS011;3138;52.550;13.148;2024-03-22T06:00:29;30.80;;;16.90;;
6209;SDS011;3138;52.550;13.148;2024-03-22T06:02:56;31.33;;;17.33;;
6209;SDS011;3138;52.550;13.148;2024-03-22T06:05:22;34.00;;;18.37;;
6209;SDS011;3138;52.550;13.148;2024-03-22T06:07:50;35.70;;;17.53;;
6209;SDS011;3138;52.550;13.148;2024-03-22T06:10:16;26.80;;;15.80;;
6209;SDS011;3138;52.550;13.148;2024-03-22T06:12:43;28.83;;;17.80;;
6209;SDS011;3138;52.550;13.148;2024-03-22T06:15:12;31.67;;;16.67;;
6209;SDS011;3138;52.550;13.148;2024-03-22T06:17:39;28.53;;;16.23;;
6209;SDS011;3138;52.550;13.148;2024-03-22T06:20:05;27.97;;;16.93;;
6209;SDS011;3138;52.550;13.148;2024-03-22T06:22:34;36.97;;;18.57;;
6209;SDS011;3138;52.550;13.148;2024-03-22T06:25:02;30.63;;;16.53;;
6209;SDS011;3138;52.550;13.148;2024-03-22T06:27:29;39.00;;;21.37;;
6209;SDS011;3138;52.550;13.148;2024-03-22T06:29:55;38.30;;;18.47;;
6209;SDS011;3138;52.550;13.148;2024-03-22T06:32:22;32.77;;;16.70;;
6209;SDS011;3138;52.550;13.148;2024-03-22T06:34:48;33.90;;;17.87;;
6209;SDS011;3138;52.550;13.148;2024-03-22T06:37:14;25.57;;;16.90;;
6209;SDS011;3138;52.550;13.148;2024-03-22T06:39:40;30.73;;;16.33;;
6209;SDS011;3138;52.550;13.148;2024-03-22T06:42:08;32.57;;;17.80;;
6209;SDS011;3138;52.550;13.148;2024-03-22T06:44:34;26.87;;;17.30;;
6209;SDS011;3138;52.550;13.148;2024-03-22T06:47:01;30.97;;;17.87;;
6209;SDS011;3138;52.550;13.148;2024-03-22T06:49:27;37.53;;;18.93;;
6209;SDS011;3138;52.550;13.148;2024-03-22T06:51:54;34.60;;;16.67;;
6209;SDS011;3138;52.550;13.148;2024-03-22T06:54:20;37.47;;;18.23;;
6209;SDS011;3138;52.550;13.148;2024-03-22T06:56:47;29.67;;;17.37;;
6209;SDS011;3138;52.550;13.148;2024-03-22T06:59:14;39.17;;;19.77;;
6209;SDS011;3138;52.550;13.148;2024-03-22T07:01:41;36.23;;;21.83;;
6209;SDS011;3138;52.550;13.148;2024-03-22T07:04:07;31.40;;;18.30;;
6209;SDS011;3138;52.550;13.148;2024-03-22T07:06:34;31.87;;;17.90;;
6209;SDS011;3138;52.550;13.148;2024-03-22T07:09:00;30.50;;;20.00;;
6209;SDS011;3138;52.550;13.148;2024-03-22T07:11:26;33.43;;;20.23;;
6209;SDS011;3138;52.550;13.148;2024-03-22T07:13:52;43.00;;;22.20;;
6209;SDS011;3138;52.550;13.148;2024-03-22T07:16:20;35.80;;;21.73;;
6209;SDS011;3138;52.550;13.148;2024-03-22T07:18:46;40.47;;;22.97;;
6209;SDS011;3138;52.550;13.148;2024-03-22T07:21:13;45.57;;;23.07;;
6209;SDS011;3138;52.550;13.148;2024-03-22T07:23:40;37.33;;;22.40;;
6209;SDS011;3138;52.550;13.148;2024-03-22T07:26:06;42.27;;;22.50;;
6209;SDS011;3138;52.550;13.148;2024-03-22T07:28:33;38.67;;;22.10;;
6209;SDS011;3138;52.550;13.148;2024-03-22T07:31:00;40.83;;;23.90;;
6209;SDS011;3138;52.550;13.148;2024-03-22T07:33:27;42.27;;;23.70;;
6209;SDS011;3138;52.550;13.148;2024-03-22T07:35:54;40.73;;;24.07;;
6209;SDS011;3138;52.550;13.148;2024-03-22T07:38:20;57.27;;;26.73;;
6209;SDS011;3138;52.550;13.148;2024-03-22T07:40:46;46.77;;;24.50;;
6209;SDS011;3138;52.550;13.148;2024-03-22T07:43:12;51.57;;;24.83;;
6209;SDS011;3138;52.550;13.148;2024-03-22T07:45:41;42.90;;;25.17;;
6209;SDS011;3138;52.550;13.148;2024-03-22T07:48:07;50.17;;;26.43;;
6209;SDS011;3138;52.550;13.148;2024-03-22T07:50:36;44.57;;;26.23;;
6209;SDS011;3138;52.550;13.148;2024-03-22T07:53:02;48.57;;;26.77;;
6209;SDS011;3138;52.550;13.148;2024-03-22T07:55:29;46.33;;;26.70;;
6209;SDS011;3138;52.550;13.148;2024-03-22T07:57:55;43.30;;;25.80;;
6209;SDS011;3138;52.550;13.148;2024-03-22T08:00:25;43.27;;;26.77;;
6209;SDS011;3138;52.550;13.148;2024-03-22T08:02:50;45.00;;;25.30;;
6209;SDS011;3138;52.550;13.148;2024-03-22T08:05:18;45.10;;;25.37;;
6209;SDS011;3138;52.550;13.148;2024-03-22T08:07:46;63.67;;;25.87;;
6209;SDS011;3138;52.550;13.148;2024-03-22T08:10:15;45.93;;;26.20;;
6209;SDS011;3138;52.550;13.148;2024-03-22T08:12:42;41.03;;;25.17;;
6209;SDS011;3138;52.550;13.148;2024-03-22T08:15:09;45.80;;;25.50;;
6209;SDS011;3138;52.550;13.148;2024-03-22T08:17:35;40.97;;;24.60;;
6209;SDS011;3138;52.550;13.148;2024-03-22T08:20:02;48.67;;;26.80;;
6209;SDS011;3138;52.550;13.148;2024-03-22T08:22:29;45.17;;;26.90;;
6209;SDS011;3138;52.550;13.148;2024-03-22T08:24:57;53.83;;;26.60;;
6209;SDS011;3138;52.550;13.148;2024-03-22T08:27:23;51.10;;;28.37;;
6209;SDS011;3138;52.550;13.148;2024-03-22T08:29:50;56.90;;;25.33;;
6209;SDS011;3138;52.550;13.148;2024-03-22T08:32:16;45.43;;;26.10;;
6209;SDS011;3138;52.550;13.148;2024-03-22T08:34:43;46.40;;;26.40;;
6209;SDS011;3138;52.550;13.148;2024-03-22T08:37:10;50.17;;;25.50;;
6209;SDS011;3138;52.550;13.148;2024-03-22T08:39:36;50.47;;;26.50;;
6209;SDS011;3138;52.550;13.148;2024-03-22T08:42:04;42.73;;;24.57;;
6209;SDS011;3138;52.550;13.148;2024-03-22T08:44:31;43.20;;;24.63;;
6209;SDS011;3138;52.550;13.148;2024-03-22T08:46:57;42.10;;;25.60;;
6209;SDS011;3138;52.550;13.148;2024-03-22T08:49:24;43.23;;;25.77;;
6209;SDS011;3138;52.550;13.148;2024-03-22T08:51:49;45.33;;;24.60;;
6209;SDS011;3138;52.550;13.148;2024-03-22T08:54:16;49.10;;;26.00;;
6209;SDS011;3138;52.550;13.148;2024-03-22T08:56:42;42.40;;;24.00;;
6209;SDS011;3138;52.550;13.148;2024-03-22T08:59:10;42.50;;;23.17;;
6209;SDS011;3138;52.550;13.148;2024-03-22T09:01:36;43.20;;;24.80;;
6209;SDS011;3138;52.550;13.148;2024-03-22T09:04:03;42.80;;;24.87;;
6209;SDS011;3138;52.550;13.148;2024-03-22T09:06:29;38.20;;;24.87;;
6209;SDS011;3138;52.550;13.148;2024-03-22T09:08:56;44.47;;;24.70;;
6209;SDS011;3138;52.550;13.148;2024-03-22T09:11:23;45.47;;;26.03;;
6209;SDS011;3138;52.550;13.148;2024-03-22T09:13:51;37.23;;;23.90;;
6209;SDS011;3138;52.550;13.148;2024-03-22T09:16:18;39.87;;;24.33;;
6209;SDS011;3138;52.550;13.148;2024-03-22T09:18:45;48.43;;;23.73;;
6209;SDS011;3138;52.550;13.148;2024-03-22T09:21:11;36.03;;;22.63;;
6209;SDS011;3138;52.550;13.148;2024-03-22T09:23:38;42.47;;;24.10;;
6209;SDS011;3138;52.550;13.148;2024-03-22T09:26:04;38.97;;;23.03;;
6209;SDS011;3138;52.550;13.148;2024-03-22T09:28:31;37.07;;;22.80;;
6209;SDS011;3138;52.550;13.148;2024-03-22T09:30:57;44.00;;;25.00;;
6209;SDS011;3138;52.550;13.148;2024-03-22T09:33:25;49.53;;;26.27;;
6209;SDS011;3138;52.550;13.148;2024-03-22T09:35:51;40.07;;;22.90;;
6209;SDS011;3138;52.550;13.148;2024-03-22T09:38:18;38.47;;;23.77;;
6209;SDS011;3138;52.550;13.148;2024-03-22T09:40:44;39.60;;;22.70;;
6209;SDS011;3138;52.550;13.148;2024-03-22T09:43:12;33.40;;;22.50;;
6209;SDS011;3138;52.550;13.148;2024-03-22T09:45:43;36.67;;;22.03;;
6209;SDS011;3138;52.550;13.148;2024-03-22T09:48:11;44.93;;;24.77;;
6209;SDS011;3138;52.550;13.148;2024-03-22T09:50:39;37.30;;;21.77;;
6209;SDS011;3138;52.550;13.148;2024-03-22T09:53:07;40.10;;;22.70;;
6209;SDS011;3138;52.550;13.148;2024-03-22T09:55:35;36.90;;;21.97;;
6209;SDS011;3138;52.550;13.148;2024-03-22T09:58:04;37.23;;;23.03;;
6209;SDS011;3138;52.550;13.148;2024-03-22T10:00:30;43.30;;;24.90;;
6209;SDS011;3138;52.550;13.148;2024-03-22T10:02:57;42.77;;;22.80;;
6209;SDS011;3138;52.550;13.148;2024-03-22T10:05:24;42.63;;;22.60;;
6209;SDS011;3138;52.550;13.148;2024-03-22T10:07:52;35.27;;;21.07;;
6209;SDS011;3138;52.550;13.148;2024-03-22T10:10:19;37.30;;;22.10;;
6209;SDS011;3138;52.550;13.148;2024-03-22T10:12:46;31.10;;;21.27;;
6209;SDS011;3138;52.550;13.148;2024-03-22T10:15:12;38.03;;;23.07;;
6209;SDS011;3138;52.550;13.148;2024-03-22T10:17:39;40.97;;;20.90;;
6209;SDS011;3138;52.550;13.148;2024-03-22T10:20:06;34.77;;;21.07;;
6209;SDS011;3138;52.550;13.148;2024-03-22T10:22:37;29.07;;;19.43;;
6209;SDS011;3138;52.550;13.148;2024-03-22T10:25:08;32.87;;;20.73;;
6209;SDS011;3138;52.550;13.148;2024-03-22T10:27:37;35.40;;;19.93;;
6209;SDS011;3138;52.550;13.148;2024-03-22T10:30:05;34.67;;;21.77;;
6209;SDS011;3138;52.550;13.148;2024-03-22T10:32:35;30.37;;;20.23;;
6209;SDS011;3138;52.550;13.148;2024-03-22T10:35:01;33.07;;;21.33;;
6209;SDS011;3138;52.550;13.148;2024-03-22T10:37:30;32.07;;;18.57;;
6209;SDS011;3138;52.550;13.148;2024-03-22T10:39:57;38.43;;;21.00;;
6209;SDS011;3138;52.550;13.148;2024-03-22T10:42:28;36.60;;;22.07;;
6209;SDS011;3138;52.550;13.148;2024-03-22T10:44:54;29.90;;;18.50;;
6209;SDS011;3138;52.550;13.148;2024-03-22T10:47:21;45.77;;;21.70;;
6209;SDS011;3138;52.550;13.148;2024-03-22T10:49:54;34.57;;;18.40;;
6209;SDS011;3138;52.550;13.148;2024-03-22T10:52:30;31.70;;;18.33;;
6209;SDS011;3138;52.550;13.148;2024-03-22T10:54:59;30.30;;;18.37;;
6209;SDS011;3138;52.550;13.148;2024-03-22T10:57:30;38.80;;;21.30;;
6209;SDS011;3138;52.550;13.148;2024-03-22T10:59:57;32.77;;;19.20;;
6209;SDS011;3138;52.550;13.148;2024-03-22T11:02:24;32.50;;;20.70;;
6209;SDS011;3138;52.550;13.148;2024-03-22T11:04:56;38.47;;;22.00;;
6209;SDS011;3138;52.550;13.148;2024-03-22T11:07:28;34.50;;;19.43;;
6209;SDS011;3138;52.550;13.148;2024-03-22T11:09:55;35.77;;;20.43;;
6209;SDS011;3138;52.550;13.148;2024-03-22T11:12:24;37.67;;;19.57;;
6209;SDS011;3138;52.550;13.148;2024-03-22T11:14:52;34.37;;;19.23;;
6209;SDS011;3138;52.550;13.148;2024-03-22T11:17:19;34.13;;;19.40;;
6209;SDS011;3138;52.550;13.148;2024-03-22T11:19:48;36.13;;;21.10;;
6209;SDS011;3138;52.550;13.148;2024-03-22T11:22:14;35.43;;;19.23;;
6209;SDS011;3138;52.550;13.148;2024-03-22T11:24:41;33.63;;;18.50;;
6209;SDS011;3138;52.550;13.148;2024-03-22T11:27:07;44.40;;;18.93;;
6209;SDS011;3138;52.550;13.148;2024-03-22T11:29:35;35.97;;;21.97;;
6209;SDS011;3138;52.550;13.148;2024-03-22T11:32:05;35.70;;;19.20;;
6209;SDS011;3138;52.550;13.148;2024-03-22T11:34:33;41.63;;;22.20;;
6209;SDS011;3138;52.550;13.148;2024-03-22T11:37:00;33.60;;;20.43;;
6209;SDS011;3138;52.550;13.148;2024-03-22T11:39:27;39.50;;;21.97;;
6209;SDS011;3138;52.550;13.148;2024-03-22T11:41:53;36.60;;;21.20;;
6209;SDS011;3138;52.550;13.148;2024-03-22T11:44:20;43.40;;;21.80;;
6209;SDS011;3138;52.550;13.148;2024-03-22T11:46:50;43.43;;;21.80;;
6209;SDS011;3138;52.550;13.148;2024-03-22T11:49:19;36.00;;;21.83;;
6209;SDS011;3138;52.550;13.148;2024-03-22T11:51:44;46.37;;;23.73;;
6209;SDS011;3138;52.550;13.148;2024-03-22T11:54:11;37.17;;;21.83;;
6209;SDS011;3138;52.550;13.148;2024-03-22T11:56:37;45.20;;;23.60;;
6209;SDS011;3138;52.550;13.148;2024-03-22T11:59:06;46.30;;;23.17;;
6209;SDS011;3138;52.550;13.148;2024-03-22T12:01:32;47.93;;;24.67;;
6209;SDS011;3138;52.550;13.148;2024-03-22T12:03:59;40.87;;;23.37;;
6209;SDS011;3138;52.550;13.148;2024-03-22T12:06:27;51.70;;;27.03;;
6209;SDS011;3138;52.550;13.148;2024-03-22T12:08:53;50.40;;;25.23;;
6209;SDS011;3138;52.550;13.148;2024-03-22T12:11:19;46.13;;;25.07;;
6209;SDS011;3138;52.550;13.148;2024-03-22T12:13:46;49.27;;;26.10;;
6209;SDS011;3138;52.550;13.148;2024-03-22T12:16:12;48.73;;;27.10;;
6209;SDS011;3138;52.550;13.148;2024-03-22T12:18:39;48.13;;;26.50;;
6209;SDS011;3138;52.550;13.148;2024-03-22T12:21:05;45.60;;;27.10;;
6209;SDS011;3138;52.550;13.148;2024-03-22T12:23:34;49.10;;;27.57;;
6209;SDS011;3138;52.550;13.148;2024-03-22T12:26:00;47.97;;;26.73;;
6209;SDS011;3138;52.550;13.148;2024-03-22T12:28:27;46.80;;;25.57;;
6209;SDS011;3138;52.550;13.148;2024-03-22T12:30:52;50.80;;;26.10;;
6209;SDS011;3138;52.550;13.148;2024-03-22T12:33:19;52.47;;;25.40;;
6209;SDS011;3138;52.550;13.148;2024-03-22T12:35:46;49.77;;;27.73;;
6209;SDS011;3138;52.550;13.148;2024-03-22T12:38:13;47.57;;;23.60;;
6209;SDS011;3138;52.550;13.148;2024-03-22T12:40:41;43.73;;;25.10;;
6209;SDS011;3138;52.550;13.148;2024-03-22T12:43:09;45.13;;;25.57;;
6209;SDS011;3138;52.550;13.148;2024-03-22T12:45:35;50.67;;;26.40;;
6209;SDS011;3138;52.550;13.148;2024-03-22T12:48:02;53.50;;;26.07;;
6209;SDS011;3138;52.550;13.148;2024-03-22T12:50:29;49.87;;;27.13;;
6209;SDS011;3138;52.550;13.148;2024-03-22T12:52:56;50.87;;;25.93;;
6209;SDS011;3138;52.550;13.148;2024-03-22T12:55:22;55.10;;;26.90;;
6209;SDS011;3138;52.550;13.148;2024-03-22T12:57:51;51.47;;;28.47;;
6209;SDS011;3138;52.550;13.148;2024-03-22T13:00:17;53.47;;;28.70;;
6209;SDS011;3138;52.550;13.148;2024-03-22T13:02:44;46.37;;;28.07;;
6209;SDS011;3138;52.550;13.148;2024-03-22T13:05:11;59.07;;;27.47;;
6209;SDS011;3138;52.550;13.148;2024-03-22T13:07:38;48.30;;;26.93;;
6209;SDS011;3138;52.550;13.148;2024-03-22T13:10:04;45.20;;;26.43;;
6209;SDS011;3138;52.550;13.148;2024-03-22T13:12:32;53.70;;;27.80;;
6209;SDS011;3138;52.550;13.148;2024-03-22T13:15:00;52.70;;;26.83;;
6209;SDS011;3138;52.550;13.148;2024-03-22T13:17:28;48.47;;;25.30;;
6209;SDS011;3138;52.550;13.148;2024-03-22T13:19:53;51.50;;;25.43;;
6209;SDS011;3138;52.550;13.148;2024-03-22T13:22:20;45.17;;;25.37;;
6209;SDS011;3138;52.550;13.148;2024-03-22T13:24:46;46.10;;;24.00;;
6209;SDS011;3138;52.550;13.148;2024-03-22T13:27:15;45.60;;;25.30;;
6209;SDS011;3138;52.550;13.148;2024-03-22T13:29:42;46.20;;;26.30;;
6209;SDS011;3138;52.550;13.148;2024-03-22T13:32:10;50.23;;;25.50;;
6209;SDS011;3138;52.550;13.148;2024-03-22T13:34:36;43.63;;;23.10;;
6209;SDS011;3138;52.550;13.148;2024-03-22T13:37:03;39.33;;;21.97;;
6209;SDS011;3138;52.550;13.148;2024-03-22T13:39:29;42.80;;;22.50;;
6209;SDS011;3138;52.550;13.148;2024-03-22T13:41:56;44.80;;;22.87;;
6209;SDS011;3138;52.550;13.148;2024-03-22T13:44:24;32.30;;;19.37;;
6209;SDS011;3138;52.550;13.148;2024-03-22T13:46:54;46.83;;;23.63;;
6209;SDS011;3138;52.550;13.148;2024-03-22T13:49:21;37.03;;;20.90;;
6209;SDS011;3138;52.550;13.148;2024-03-22T13:51:49;42.70;;;20.37;;
6209;SDS011;3138;52.550;13.148;2024-03-22T13:54:15;37.13;;;19.33;;
6209;SDS011;3138;52.550;13.148;2024-03-22T13:56:42;41.20;;;20.50;;
6209;SDS011;3138;52.550;13.148;2024-03-22T13:59:08;37.63;;;19.97;;
6209;SDS011;3138;52.550;13.148;2024-03-22T14:01:36;38.10;;;21.10;;
6209;SDS011;3138;52.550;13.148;2024-03-22T14:04:02;37.83;;;21.70;;
6209;SDS011;3138;52.550;13.148;2024-03-22T14:06:31;33.50;;;21.23;;
6209;SDS011;3138;52.550;13.148;2024-03-22T14:08:57;32.73;;;18.50;;
6209;SDS011;3138;52.550;13.148;2024-03-22T14:11:26;32.70;;;18.10;;
6209;SDS011;3138;52.550;13.148;2024-03-22T14:13:52;28.80;;;18.93;;
6209;SDS011;3138;52.550;13.148;2024-03-22T14:16:19;38.90;;;18.83;;
6209;SDS011;3138;52.550;13.148;2024-03-22T14:18:45;32.70;;;18.43;;
6209;SDS011;3138;52.550;13.148;2024-03-22T14:21:11;34.77;;;18.37;;
6209;SDS011;3138;52.550;13.148;2024-03-22T14:23:43;33.33;;;18.47;;
6209;SDS011;3138;52.550;13.148;2024-03-22T14:26:10;38.10;;;18.30;;
6209;SDS011;3138;52.550;13.148;2024-03-22T14:28:36;34.20;;;19.43;;
6209;SDS011;3138;52.550;13.148;2024-03-22T14:31:04;30.53;;;17.67;;